Time;durP1;ratioP1;P1;durP2;ratioP2;P2;SDS_P1;SDS_P2;PMS_P1;PMS_P2;Temp;Humidity;BMP_temperature;BMP_pressure;BME280_temperature;BME280_humidity;BME280_pressure;Samples;Min_cycle;Max_cycle;Signal;HPM_P1;HPM_P2
2023/03/26 00:01:18;;;;;;;0.10;0.10;;;6.70;99.90;;;;;;5035724;28;20059;-71
2023/03/26 00:03:45;;;;;;;0.20;0.20;;;6.60;99.90;;;;;;5034225;28;20050;-71
2023/03/26 00:06:13;;;;;;;0.10;0.10;;;6.60;99.90;;;;;;5035621;28;20071;-71
2023/03/26 00:08:41;;;;;;;0.10;0.10;;;6.50;99.90;;;;;;5035603;28;20438;-72
2023/03/26 00:11:10;;;;;;;0.10;0.10;;;6.40;99.90;;;;;;5034030;28;20029;-71
2023/03/26 00:13:36;;;;;;;0.10;0.10;;;6.30;99.90;;;;;;5037541;23;20103;-71
2023/03/26 00:16:02;;;;;;;0.10;0.10;;;6.30;99.90;;;;;;5035531;28;20029;-71
2023/03/26 00:18:30;;;;;;;0.10;0.10;;;6.30;99.90;;;;;;5034917;28;20030;-71
2023/03/26 00:20:57;;;;;;;0.10;0.10;;;6.30;99.90;;;;;;5035412;28;20057;-72
2023/03/26 00:23:24;;;;;;;0.20;0.20;;;6.20;99.90;;;;;;5035565;28;20376;-71
2023/03/26 00:25:50;;;;;;;0.15;0.15;;;6.20;99.90;;;;;;5035424;28;20031;-72
2023/03/26 00:28:20;;;;;;;0.15;0.15;;;6.30;99.90;;;;;;5034843;28;20469;-71
2023/03/26 00:30:46;;;;;;;0.10;0.10;;;6.30;99.90;;;;;;5035117;28;20026;-72
2023/03/26 00:33:16;;;;;;;0.10;0.10;;;6.20;99.90;;;;;;5034772;28;20119;-71
2023/03/26 00:35:46;;;;;;;0.10;0.10;;;6.20;99.90;;;;;;5035094;28;20026;-72
2023/03/26 00:38:14;;;;;;;0.20;0.20;;;6.10;99.90;;;;;;5035555;28;20083;-71
2023/03/26 00:40:46;;;;;;;0.10;0.10;;;6.10;99.90;;;;;;5034421;28;20079;-71
2023/03/26 00:43:17;;;;;;;0.10;0.10;;;6.10;99.90;;;;;;5034226;28;20032;-71
2023/03/26 00:45:48;;;;;;;0.10;0.10;;;6.10;99.90;;;;;;5035428;28;20382;-72
2023/03/26 00:48:15;;;;;;;0.10;0.10;;;6.10;99.90;;;;;;5034381;28;20056;-71
2023/03/26 00:50:42;;;;;;;0.17;0.17;;;6.00;99.90;;;;;;5033474;28;20038;-71
2023/03/26 00:53:10;;;;;;;0.20;0.20;;;5.90;99.90;;;;;;5035200;28;20038;-72
2023/03/26 00:55:36;;;;;;;0.10;0.10;;;6.00;99.90;;;;;;5032821;28;20021;-71
2023/03/26 00:58:02;;;;;;;0.13;0.13;;;5.90;99.90;;;;;;5034614;28;20028;-72
2023/03/26 01:00:34;;;;;;;0.10;0.10;;;6.00;99.90;;;;;;5034506;28;20033;-72
2023/03/26 01:03:04;;;;;;;0.10;0.10;;;6.00;99.90;;;;;;5034647;28;20471;-71
2023/03/26 01:05:44;;;;;;;0.10;0.10;;;6.00;99.90;;;;;;5034050;28;20032;-71
2023/03/26 01:08:32;;;;;;;0.10;0.10;;;6.10;99.90;;;;;;5034516;28;20437;-71
2023/03/26 01:11:05;;;;;;;0.10;0.10;;;6.10;99.90;;;;;;5034639;28;20033;-71
2023/03/26 01:13:38;;;;;;;0.20;0.20;;;6.10;99.90;;;;;;5034684;28;20426;-72
2023/03/26 01:16:18;;;;;;;0.15;0.15;;;6.20;99.90;;;;;;5034517;28;20043;-72
2023/03/26 01:18:47;;;;;;;0.10;0.10;;;6.10;99.90;;;;;;5034612;28;20021;-72
2023/03/26 01:21:21;;;;;;;0.10;0.10;;;6.20;99.90;;;;;;5032527;28;20085;-72
2023/03/26 01:23:56;;;;;;;0.10;0.10;;;6.20;99.90;;;;;;5034765;28;20021;-72
2023/03/26 01:26:41;;;;;;;0.10;0.10;;;6.10;99.90;;;;;;5032671;28;20026;-72
2023/03/26 01:29:18;;;;;;;0.20;0.20;;;6.10;99.90;;;;;;5033778;28;20024;-71
2023/03/26 01:31:45;;;;;;;0.20;0.20;;;6.00;99.90;;;;;;5032989;28;20086;-71
2023/03/26 01:34:19;;;;;;;0.20;0.20;;;6.10;99.90;;;;;;5034497;28;20116;-71
2023/03/26 01:36:57;;;;;;;0.10;0.10;;;6.00;99.90;;;;;;5033954;28;20144;-71
2023/03/26 01:39:48;;;;;;;0.10;0.10;;;6.00;99.90;;;;;;5033993;28;20029;-71
2023/03/26 01:42:32;;;;;;;0.20;0.20;;;5.90;99.90;;;;;;5033731;28;20029;-71
2023/03/26 01:45:16;;;;;;;0.10;0.10;;;5.90;99.90;;;;;;5033848;28;20029;-71
2023/03/26 01:47:42;;;;;;;0.10;0.10;;;5.90;99.90;;;;;;5014212;28;20026;-71
2023/03/26 01:50:09;;;;;;;0.10;0.10;;;5.80;99.90;;;;;;5026154;28;20038;-71
2023/03/26 01:52:35;;;;;;;0.10;0.10;;;5.80;99.90;;;;;;5033188;28;20457;-71
2023/03/26 01:55:01;;;;;;;0.10;0.10;;;5.70;99.90;;;;;;5033213;28;20148;-72
2023/03/26 01:57:58;;;;;;;0.10;0.10;;;5.70;99.90;;;;;;5033853;28;20030;-71
2023/03/26 02:01:00;;;;;;;0.10;0.10;;;5.60;99.90;;;;;;5033587;28;20167;-71
2023/03/26 02:03:33;;;;;;;0.10;0.10;;;5.50;99.90;;;;;;5033193;28;20475;-71
2023/03/26 02:06:41;;;;;;;0.10;0.10;;;5.50;99.90;;;;;;5033283;28;20368;-71
2023/03/26 02:09:11;;;;;;;0.10;0.10;;;5.50;99.90;;;;;;5020570;28;20033;-72
2023/03/26 02:11:38;;;;;;;0.10;0.10;;;5.40;99.90;;;;;;5080876;23;20033;-71
2023/03/26 02:14:05;;;;;;;0.10;0.10;;;5.50;99.90;;;;;;5033532;28;20112;-72
2023/03/26 02:16:31;;;;;;;0.20;0.20;;;5.50;99.90;;;;;;5032628;28;20022;-71
2023/03/26 02:18:58;;;;;;;0.10;0.10;;;5.40;99.90;;;;;;5033403;28;20541;-71
2023/03/26 02:21:26;;;;;;;0.10;0.10;;;5.30;99.90;;;;;;5015428;28;20489;-71
2023/03/26 02:24:01;;;;;;;0.15;0.15;;;5.30;99.90;;;;;;5033186;28;20022;-72
2023/03/26 02:26:32;;;;;;;0.10;0.10;;;5.20;99.90;;;;;;5014830;28;20453;-71
2023/03/26 02:28:58;;;;;;;0.10;0.10;;;5.10;99.90;;;;;;5033651;28;20021;-71
2023/03/26 02:31:26;;;;;;;0.20;0.20;;;5.00;99.90;;;;;;5032666;28;20029;-71
2023/03/26 02:33:54;;;;;;;0.10;0.10;;;5.00;99.90;;;;;;5015355;28;20032;-71
2023/03/26 02:36:23;;;;;;;0.10;0.10;;;4.90;99.90;;;;;;5015073;28;20398;-71
2023/03/26 02:38:50;;;;;;;0.10;0.10;;;4.70;99.90;;;;;;5032984;28;20104;-72
2023/03/26 02:41:16;;;;;;;0.13;0.13;;;4.60;99.90;;;;;;5033012;28;20060;-71
2023/03/26 02:43:41;;;;;;;0.10;0.10;;;4.50;99.90;;;;;;5033069;28;20049;-71
2023/03/26 02:46:10;;;;;;;0.10;0.10;;;4.50;99.90;;;;;;5032947;28;20038;-71
2023/03/26 02:48:35;;;;;;;0.20;0.20;;;4.40;99.90;;;;;;5032207;28;20022;-71
2023/03/26 02:51:01;;;;;;;0.10;0.10;;;4.40;99.90;;;;;;5014982;28;20036;-71
2023/03/26 02:53:29;;;;;;;0.20;0.20;;;4.40;99.90;;;;;;5032866;28;20388;-71
2023/03/26 02:55:56;;;;;;;0.10;0.10;;;4.50;99.90;;;;;;5032865;28;20032;-71
2023/03/26 02:58:24;;;;;;;0.10;0.10;;;4.50;99.90;;;;;;5032388;28;20033;-71
2023/03/26 03:00:53;;;;;;;0.10;0.10;;;4.50;99.90;;;;;;5032528;28;20364;-71
2023/03/26 03:03:23;;;;;;;0.20;0.20;;;4.50;99.90;;;;;;5013035;28;20419;-71
2023/03/26 03:05:50;;;;;;;0.10;0.10;;;4.60;99.90;;;;;;5015729;28;20108;-71
2023/03/26 03:08:23;;;;;;;0.20;0.20;;;4.60;99.90;;;;;;5017076;28;20033;-71
2023/03/26 03:11:01;;;;;;;0.20;0.20;;;4.60;99.90;;;;;;5016337;28;20034;-71
2023/03/26 03:13:27;;;;;;;0.15;0.15;;;4.60;99.90;;;;;;5016929;28;20044;-71
2023/03/26 03:15:53;;;;;;;0.20;0.20;;;4.70;99.90;;;;;;5016958;28;20036;-72
2023/03/26 03:18:19;;;;;;;0.10;0.10;;;4.60;99.90;;;;;;5034074;28;20025;-71
2023/03/26 03:20:45;;;;;;;0.10;0.10;;;4.60;99.90;;;;;;5036461;28;20053;-71
2023/03/26 03:23:11;;;;;;;0.20;0.20;;;4.60;99.90;;;;;;5041017;23;20522;-71
2023/03/26 03:25:37;;;;;;;0.20;0.20;;;4.50;99.90;;;;;;5036651;28;20102;-71
2023/03/26 03:28:03;;;;;;;0.20;0.20;;;4.40;99.90;;;;;;5036333;28;20018;-71
2023/03/26 03:30:29;;;;;;;0.20;0.20;;;4.40;99.90;;;;;;5036319;28;20069;-71
2023/03/26 03:32:57;;;;;;;0.20;0.20;;;4.50;99.90;;;;;;5036186;28;20531;-71
2023/03/26 03:35:23;;;;;;;0.10;0.10;;;4.50;99.90;;;;;;5036401;28;20053;-71
2023/03/26 03:37:52;;;;;;;0.10;0.10;;;4.40;99.90;;;;;;5035561;28;20035;-71
2023/03/26 03:40:18;;;;;;;0.20;0.20;;;4.40;99.90;;;;;;5036132;28;20032;-71
2023/03/26 03:42:45;;;;;;;0.20;0.20;;;4.30;99.90;;;;;;5036127;28;20108;-71
2023/03/26 03:45:11;;;;;;;0.10;0.10;;;4.30;99.90;;;;;;5036179;28;20029;-71
2023/03/26 03:47:36;;;;;;;0.20;0.20;;;4.20;99.90;;;;;;5035595;28;20013;-71
2023/03/26 03:50:03;;;;;;;0.20;0.20;;;4.20;99.90;;;;;;5036155;28;20036;-71
2023/03/26 03:52:28;;;;;;;0.20;0.20;;;4.30;99.90;;;;;;5035831;28;20159;-71
2023/03/26 03:54:56;;;;;;;0.17;0.17;;;4.30;99.90;;;;;;5035554;28;20067;-71
2023/03/26 03:57:22;;;;;;;0.10;0.10;;;4.30;99.90;;;;;;5035782;28;20067;-71
2023/03/26 03:59:48;;;;;;;0.20;0.20;;;4.20;99.90;;;;;;5035928;28;20108;-71
2023/03/26 04:02:19;;;;;;;0.20;0.20;;;4.20;99.90;;;;;;5036032;28;20026;-71
2023/03/26 04:04:49;;;;;;;0.20;0.20;;;4.20;99.90;;;;;;5035992;28;20471;-72
2023/03/26 04:07:14;;;;;;;0.10;0.10;;;4.10;99.90;;;;;;5035297;28;20027;-71
2023/03/26 04:09:40;;;;;;;0.10;0.10;;;4.10;99.90;;;;;;5036064;28;20092;-71
2023/03/26 04:12:05;;;;;;;0.28;0.28;;;4.10;99.90;;;;;;5035884;28;20025;-71
2023/03/26 04:14:31;;;;;;;0.20;0.20;;;4.00;99.90;;;;;;5035212;28;20441;-71
2023/03/26 04:16:56;;;;;;;0.20;0.20;;;4.10;99.90;;;;;;5034468;28;20037;-71
2023/03/26 04:19:22;;;;;;;0.20;0.20;;;4.10;99.90;;;;;;5035544;28;20026;-71
2023/03/26 04:21:48;;;;;;;0.10;0.10;;;4.10;99.90;;;;;;5033903;28;20541;-71
2023/03/26 04:24:14;;;;;;;0.20;0.20;;;4.20;99.90;;;;;;5035562;28;20017;-72
2023/03/26 04:26:39;;;;;;;0.20;0.20;;;4.10;99.90;;;;;;5034181;28;20487;-71
2023/03/26 04:29:11;;;;;;;0.20;0.20;;;4.20;99.90;;;;;;5034941;28;20470;-71
2023/03/26 04:31:37;;;;;;;0.20;0.20;;;4.20;99.90;;;;;;5034984;28;20406;-71
2023/03/26 04:34:13;;;;;;;0.20;0.20;;;4.30;99.90;;;;;;5034947;28;20028;-71
2023/03/26 04:36:41;;;;;;;0.10;0.10;;;4.20;99.90;;;;;;5035269;28;20021;-71
2023/03/26 04:39:10;;;;;;;0.13;0.13;;;4.20;99.90;;;;;;5035132;28;20394;-72
2023/03/26 04:41:36;;;;;;;0.20;0.20;;;4.20;99.90;;;;;;5034491;28;20029;-71
2023/03/26 04:44:01;;;;;;;0.20;0.20;;;4.20;99.90;;;;;;5035298;28;20024;-71
2023/03/26 04:46:32;;;;;;;0.20;0.20;;;4.20;99.90;;;;;;5034981;28;20027;-71
2023/03/26 04:48:57;;;;;;;0.20;0.20;;;4.10;99.90;;;;;;5034871;28;20026;-71
2023/03/26 04:51:37;;;;;;;0.30;0.30;;;4.10;99.90;;;;;;5041830;23;20037;-71
2023/03/26 04:54:05;;;;;;;0.20;0.20;;;4.00;99.90;;;;;;5056688;22;20048;-74
2023/03/26 04:56:50;;;;;;;0.20;0.20;;;4.00;99.90;;;;;;5037170;28;20018;-74
2023/03/26 04:59:25;;;;;;;0.20;0.20;;;4.00;99.90;;;;;;5037575;28;20030;-74
2023/03/26 05:01:54;;;;;;;0.20;0.20;;;4.00;99.90;;;;;;5037049;28;20028;-74
2023/03/26 05:04:20;;;;;;;0.20;0.20;;;4.00;99.90;;;;;;5018369;28;20025;-74
2023/03/26 05:06:45;;;;;;;0.20;0.20;;;4.00;99.90;;;;;;5037027;28;20551;-74
2023/03/26 05:09:11;;;;;;;0.20;0.20;;;3.90;99.90;;;;;;5037421;28;20077;-74
2023/03/26 05:11:37;;;;;;;0.20;0.20;;;3.90;99.90;;;;;;5037214;28;20053;-74
2023/03/26 05:14:02;;;;;;;0.20;0.20;;;3.90;99.90;;;;;;5036755;28;20056;-74
2023/03/26 05:16:29;;;;;;;0.20;0.20;;;3.80;99.90;;;;;;5036657;28;20496;-74
2023/03/26 05:18:54;;;;;;;0.20;0.20;;;3.80;99.90;;;;;;5019359;28;20131;-74
2023/03/26 05:21:21;;;;;;;0.15;0.15;;;3.80;99.90;;;;;;5019179;28;20113;-74
2023/03/26 05:23:46;;;;;;;0.20;0.20;;;3.80;99.90;;;;;;5036853;28;20471;-74
2023/03/26 05:26:12;;;;;;;0.22;0.22;;;3.80;99.90;;;;;;5018472;28;20051;-74
2023/03/26 05:28:37;;;;;;;0.20;0.20;;;3.80;99.90;;;;;;5036544;28;20030;-74
2023/03/26 05:31:04;;;;;;;0.20;0.20;;;3.80;99.90;;;;;;5037065;28;20107;-74
2023/03/26 05:33:29;;;;;;;0.10;0.10;;;3.80;99.90;;;;;;5018846;28;20033;-74
2023/03/26 05:36:00;;;;;;;0.13;0.13;;;3.70;99.90;;;;;;5019153;28;20091;-74
2023/03/26 05:38:27;;;;;;;0.30;0.30;;;3.70;99.90;;;;;;5036309;28;20053;-74
2023/03/26 05:41:06;;;;;;;0.10;0.10;;;3.60;99.90;;;;;;5036398;28;20032;-74
2023/03/26 05:43:33;;;;;;;0.20;0.20;;;3.70;99.90;;;;;;5036261;28;20449;-74
2023/03/26 05:45:59;;;;;;;0.15;0.15;;;3.70;99.90;;;;;;5036691;28;20017;-74
2023/03/26 05:48:25;;;;;;;0.20;0.20;;;3.70;99.90;;;;;;5036580;28;20474;-74
2023/03/26 05:50:53;;;;;;;0.20;0.20;;;3.60;99.90;;;;;;5036082;28;20108;-74
2023/03/26 05:53:19;;;;;;;0.10;0.10;;;3.70;99.90;;;;;;5035967;28;20033;-74
2023/03/26 05:55:49;;;;;;;0.20;0.20;;;3.70;99.90;;;;;;5018937;28;20059;-74
2023/03/26 05:58:15;;;;;;;0.20;0.20;;;3.70;99.90;;;;;;5036387;28;20033;-74
2023/03/26 06:00:41;;;;;;;0.10;0.10;;;3.70;99.90;;;;;;5036125;28;20038;-74
2023/03/26 06:03:11;;;;;;;0.20;0.20;;;3.70;99.90;;;;;;5035889;28;20407;-74
2023/03/26 06:05:41;;;;;;;0.20;0.20;;;3.80;99.90;;;;;;5018399;28;20018;-74
2023/03/26 06:08:10;;;;;;;0.28;0.28;;;3.80;99.90;;;;;;5018136;28;20032;-74
2023/03/26 06:10:39;;;;;;;0.20;0.20;;;3.80;99.90;;;;;;5036180;28;20040;-74
2023/03/26 06:13:05;;;;;;;0.13;0.13;;;3.80;99.90;;;;;;5035918;28;20028;-74
2023/03/26 06:15:30;;;;;;;0.20;0.20;;;3.80;99.90;;;;;;5036282;28;20021;-74
2023/03/26 06:17:56;;;;;;;0.20;0.20;;;3.80;99.90;;;;;;5035116;28;20032;-74
2023/03/26 06:20:21;;;;;;;0.10;0.10;;;3.90;99.90;;;;;;5017454;28;20116;-74
2023/03/26 06:22:47;;;;;;;0.20;0.20;;;4.00;99.90;;;;;;5036122;28;20025;-74
2023/03/26 06:25:12;;;;;;;0.20;0.20;;;4.10;99.90;;;;;;5035880;28;20520;-74
2023/03/26 06:27:38;;;;;;;0.20;0.20;;;4.20;99.90;;;;;;5035077;28;20030;-74
2023/03/26 06:30:04;;;;;;;0.20;0.20;;;4.20;99.90;;;;;;5035351;28;20033;-74
2023/03/26 06:32:30;;;;;;;0.20;0.20;;;4.30;99.90;;;;;;5035289;28;20107;-74
2023/03/26 06:34:55;;;;;;;0.20;0.20;;;4.30;99.90;;;;;;5035612;28;20029;-74
2023/03/26 06:37:21;;;;;;;0.20;0.20;;;4.40;99.90;;;;;;5034961;28;20034;-74
2023/03/26 06:39:46;;;;;;;0.20;0.20;;;4.60;99.90;;;;;;5016905;28;20062;-74
2023/03/26 06:42:12;;;;;;;0.20;0.20;;;4.80;99.90;;;;;;5017529;28;20117;-74
2023/03/26 06:44:39;;;;;;;0.30;0.30;;;4.90;99.90;;;;;;5035737;28;20052;-74
2023/03/26 06:47:04;;;;;;;0.17;0.17;;;4.90;99.90;;;;;;5018019;28;20414;-74
2023/03/26 06:49:30;;;;;;;0.20;0.20;;;4.80;99.90;;;;;;5034871;28;20018;-74
2023/03/26 06:51:58;;;;;;;0.20;0.20;;;4.80;99.90;;;;;;5035186;28;20021;-74
2023/03/26 06:54:24;;;;;;;0.20;0.20;;;5.00;99.90;;;;;;5017753;28;20080;-74
2023/03/26 06:56:49;;;;;;;0.20;0.20;;;5.20;99.90;;;;;;5034981;28;20034;-74
2023/03/26 06:59:15;;;;;;;0.10;0.10;;;5.20;99.90;;;;;;5035315;28;20033;-74
2023/03/26 07:01:40;;;;;;;0.20;0.20;;;5.20;99.90;;;;;;5035138;28;20525;-74
2023/03/26 07:04:06;;;;;;;0.20;0.20;;;5.20;99.90;;;;;;5017160;28;20160;-74
2023/03/26 07:06:31;;;;;;;0.10;0.10;;;5.40;99.90;;;;;;5035516;28;20104;-74
2023/03/26 07:08:57;;;;;;;0.20;0.20;;;5.60;99.90;;;;;;5035558;28;20391;-74
2023/03/26 07:11:24;;;;;;;0.20;0.20;;;5.90;99.90;;;;;;5016851;28;20456;-74
2023/03/26 07:13:55;;;;;;;0.20;0.20;;;5.90;99.90;;;;;;5017199;28;20030;-74
2023/03/26 07:16:21;;;;;;;0.20;0.20;;;5.60;99.90;;;;;;5033545;28;20036;-74
2023/03/26 07:18:47;;;;;;;0.25;0.25;;;5.40;99.90;;;;;;5034942;28;20517;-75
2023/03/26 07:21:13;;;;;;;0.20;0.20;;;5.20;99.90;;;;;;5034981;28;20025;-75
2023/03/26 07:23:39;;;;;;;0.20;0.20;;;5.40;99.90;;;;;;5035028;28;20071;-74
2023/03/26 07:26:30;;;;;;;0.20;0.20;;;5.40;99.90;;;;;;5034771;28;20021;-73
2023/03/26 07:29:21;;;;;;;0.20;0.20;;;5.60;99.90;;;;;;5004574;28;20041;-73
2023/03/26 07:32:10;;;;;;;0.20;0.20;;;5.60;99.90;;;;;;5035458;28;20120;-74
2023/03/26 07:34:51;;;;;;;0.20;0.20;;;5.70;99.90;;;;;;5035328;28;20052;-73
2023/03/26 07:37:42;;;;;;;0.20;0.20;;;5.80;99.90;;;;;;5016434;28;20036;-73
2023/03/26 07:40:30;;;;;;;0.10;0.10;;;5.90;99.90;;;;;;5017079;28;20033;-73
2023/03/26 07:43:27;;;;;;;0.20;0.20;;;6.30;99.90;;;;;;5025539;23;20099;-73
2023/03/26 07:45:53;;;;;;;0.20;0.20;;;6.40;99.90;;;;;;5034757;28;20087;-73
2023/03/26 07:48:24;;;;;;;0.30;0.30;;;6.20;99.90;;;;;;5035083;28;20017;-73
2023/03/26 07:50:50;;;;;;;0.20;0.20;;;6.10;99.90;;;;;;5035325;28;20053;-73
2023/03/26 07:53:16;;;;;;;0.20;0.20;;;6.20;99.90;;;;;;5037809;28;20038;-73
2023/03/26 07:56:15;;;;;;;0.20;0.20;;;6.20;99.90;;;;;;5038376;28;20048;-73
2023/03/26 07:59:09;;;;;;;0.20;0.20;;;6.30;99.90;;;;;;5038111;28;20044;-73
2023/03/26 08:01:43;;;;;;;0.20;0.20;;;6.40;99.90;;;;;;5038258;28;20025;-73
2023/03/26 08:04:28;;;;;;;0.10;0.10;;;6.50;99.90;;;;;;5037047;28;20056;-74
2023/03/26 08:07:21;;;;;;;0.10;0.10;;;6.70;99.90;;;;;;5038388;28;20071;-74
2023/03/26 08:10:19;;;;;;;0.20;0.20;;;6.80;99.90;;;;;;5038000;28;20018;-75
2023/03/26 08:12:58;;;;;;;0.20;0.20;;;6.90;99.90;;;;;;5038623;28;20095;-74
2023/03/26 08:15:59;;;;;;;0.10;0.10;;;6.80;99.90;;;;;;5039250;28;20024;-74
2023/03/26 08:18:44;;;;;;;0.15;0.15;;;6.70;99.90;;;;;;5038116;28;20022;-74
2023/03/26 08:21:43;;;;;;;0.20;0.20;;;6.40;99.90;;;;;;5037836;28;20079;-74
2023/03/26 08:24:15;;;;;;;0.20;0.20;;;6.50;99.90;;;;;;5034829;28;20041;-74
2023/03/26 08:27:12;;;;;;;0.20;0.20;;;6.80;99.90;;;;;;5038242;28;20017;-74
2023/03/26 08:30:01;;;;;;;0.20;0.20;;;7.10;99.90;;;;;;5037667;28;20021;-74
2023/03/26 08:32:28;;;;;;;0.20;0.20;;;7.40;99.90;;;;;;5036227;28;20433;-75
2023/03/26 08:34:53;;;;;;;0.20;0.20;;;7.30;99.90;;;;;;5038024;28;20033;-74
2023/03/26 08:37:20;;;;;;;0.20;0.20;;;7.30;99.90;;;;;;5037673;28;20025;-74
2023/03/26 08:39:46;;;;;;;0.20;0.20;;;6.90;99.90;;;;;;5037796;28;20022;-74
2023/03/26 08:42:20;;;;;;;0.13;0.13;;;6.70;99.90;;;;;;5037220;28;20033;-74
2023/03/26 08:44:51;;;;;;;0.20;0.20;;;6.90;99.90;;;;;;5036908;28;20026;-74
2023/03/26 08:47:36;;;;;;;0.20;0.20;;;7.30;99.90;;;;;;5037440;28;20021;-75
2023/03/26 08:50:29;;;;;;;0.10;0.10;;;7.40;99.90;;;;;;5036756;28;20028;-75
2023/03/26 08:53:22;;;;;;;0.20;0.20;;;7.30;99.90;;;;;;5037161;28;20096;-75
2023/03/26 08:55:50;;;;;;;0.17;0.17;;;7.30;99.90;;;;;;5036298;28;20022;-74
2023/03/26 08:58:43;;;;;;;0.10;0.10;;;7.40;99.90;;;;;;5037336;28;20022;-74
2023/03/26 09:01:30;;;;;;;0.20;0.20;;;7.70;99.90;;;;;;5037051;28;20079;-74
2023/03/26 09:04:21;;;;;;;0.20;0.20;;;7.90;99.90;;;;;;5036283;28;20029;-74
2023/03/26 09:06:58;;;;;;;0.20;0.20;;;7.50;99.90;;;;;;5036794;28;20433;-74
2023/03/26 09:09:54;;;;;;;0.13;0.13;;;7.10;99.90;;;;;;5036778;28;20021;-74
2023/03/26 09:12:51;;;;;;;0.13;0.13;;;7.20;99.90;;;;;;5037279;28;20027;-74
2023/03/26 09:15:52;;;;;;;0.17;0.17;;;7.40;99.90;;;;;;5037305;28;20398;-74
2023/03/26 09:18:36;;;;;;;0.10;0.10;;;7.40;99.90;;;;;;5036866;28;20030;-75
2023/03/26 09:21:24;;;;;;;0.20;0.20;;;7.60;99.90;;;;;;5036899;28;20487;-75
2023/03/26 09:24:11;;;;;;;0.20;0.20;;;7.70;99.90;;;;;;5036661;28;20028;-75
2023/03/26 09:26:50;;;;;;;0.20;0.20;;;7.80;99.90;;;;;;5036781;28;20458;-75
2023/03/26 09:29:53;;;;;;;0.20;0.20;;;7.80;99.90;;;;;;5036990;28;20051;-75
2023/03/26 09:32:27;;;;;;;0.20;0.20;;;7.80;99.90;;;;;;5036717;28;20041;-75
2023/03/26 09:35:18;;;;;;;0.17;0.17;;;8.00;99.90;;;;;;5036297;28;20196;-75
2023/03/26 09:38:11;;;;;;;0.20;0.20;;;8.10;99.90;;;;;;5037226;28;20090;-75
2023/03/26 09:40:58;;;;;;;0.10;0.10;;;8.10;99.90;;;;;;5036505;28;20068;-75
2023/03/26 09:43:35;;;;;;;0.20;0.20;;;8.10;99.90;;;;;;5036055;28;20081;-75
2023/03/26 09:46:15;;;;;;;0.20;0.20;;;8.30;99.90;;;;;;5034851;28;20025;-75
2023/03/26 09:49:05;;;;;;;0.10;0.10;;;8.40;99.90;;;;;;5036448;28;20071;-75
2023/03/26 09:51:37;;;;;;;0.20;0.20;;;8.40;99.90;;;;;;5036148;28;20032;-75
2023/03/26 09:54:38;;;;;;;0.20;0.20;;;8.20;99.90;;;;;;5036036;28;20419;-75
2023/03/26 09:57:44;;;;;;;0.20;0.20;;;8.30;99.90;;;;;;5033724;28;20041;-75
2023/03/26 10:00:18;;;;;;;0.20;0.20;;;8.60;99.90;;;;;;5035947;28;20022;-75
2023/03/26 10:02:51;;;;;;;0.10;0.10;;;8.40;99.90;;;;;;5084373;23;20049;-74
2023/03/26 10:05:25;;;;;;;0.20;0.20;;;8.40;99.90;;;;;;5035853;28;20025;-75
2023/03/26 10:07:57;;;;;;;0.20;0.20;;;8.50;99.90;;;;;;5035432;28;20091;-75
2023/03/26 10:10:39;;;;;;;0.13;0.13;;;8.90;99.90;;;;;;5035034;28;20022;-75
2023/03/26 10:13:58;;;;;;;0.20;0.20;;;9.00;99.90;;;;;;5035650;28;20067;-75
2023/03/26 10:16:51;;;;;;;0.20;0.20;;;8.70;99.90;;;;;;4955625;29;20704;-74
2023/03/26 10:19:42;;;;;;;0.20;0.20;;;8.50;99.90;;;;;;5035327;28;20091;-73
2023/03/26 10:22:26;;;;;;;0.20;0.20;;;8.30;99.90;;;;;;5035646;28;20077;-73
2023/03/26 10:25:16;;;;;;;0.20;0.20;;;8.50;99.90;;;;;;5036158;28;20034;-74
2023/03/26 10:28:03;;;;;;;0.10;0.10;;;8.80;99.90;;;;;;5036053;28;20028;-74
2023/03/26 10:30:31;;;;;;;0.10;0.10;;;8.90;99.90;;;;;;5034761;28;20030;-73
2023/03/26 10:33:21;;;;;;;0.20;0.20;;;8.80;99.90;;;;;;5035799;28;20017;-73
2023/03/26 10:36:04;;;;;;;0.25;0.25;;;9.10;99.90;;;;;;5035844;28;20032;-73
2023/03/26 10:38:42;;;;;;;0.20;0.20;;;9.10;99.90;;;;;;5035347;28;20033;-73
2023/03/26 10:41:26;;;;;;;0.15;0.15;;;8.90;99.90;;;;;;5034897;28;20097;-74
2023/03/26 10:44:09;;;;;;;0.15;0.15;;;9.10;99.90;;;;;;5035139;28;20079;-73
2023/03/26 10:47:04;;;;;;;0.10;0.10;;;8.80;99.90;;;;;;5034973;28;20494;-73
2023/03/26 10:49:47;;;;;;;0.20;0.20;;;8.50;99.90;;;;;;5035319;28;20029;-73
2023/03/26 10:52:19;;;;;;;0.20;0.20;;;8.70;99.90;;;;;;5035197;28;20032;-71
2023/03/26 10:55:02;;;;;;;0.20;0.20;;;8.90;99.90;;;;;;5128130;23;20056;-75
2023/03/26 10:57:34;;;;;;;0.20;0.20;;;9.00;99.90;;;;;;5033120;28;20022;-75
2023/03/26 11:00:22;;;;;;;0.10;0.10;;;9.00;99.90;;;;;;5031208;28;20072;-75
2023/03/26 11:02:59;;;;;;;0.20;0.20;;;9.10;99.90;;;;;;5032874;28;20502;-75
2023/03/26 11:06:03;;;;;;;0.20;0.20;;;9.30;99.90;;;;;;5032939;28;20101;-75
2023/03/26 11:08:37;;;;;;;0.20;0.20;;;9.50;99.90;;;;;;5031881;28;20499;-76
2023/03/26 11:11:03;;;;;;;0.20;0.20;;;9.60;99.90;;;;;;5033019;28;20064;-76
2023/03/26 11:13:52;;;;;;;0.20;0.20;;;9.80;99.90;;;;;;5032393;28;20052;-75
2023/03/26 11:16:53;;;;;;;0.20;0.20;;;9.60;99.90;;;;;;5033039;28;20057;-76
2023/03/26 11:19:46;;;;;;;0.10;0.10;;;9.50;99.90;;;;;;5031757;28;20025;-76
2023/03/26 11:22:27;;;;;;;0.20;0.20;;;9.50;99.90;;;;;;5032261;28;20512;-76
2023/03/26 11:25:22;;;;;;;0.20;0.20;;;9.70;99.90;;;;;;5031389;28;20120;-76
2023/03/26 11:28:32;;;;;;;0.20;0.20;;;10.20;99.90;;;;;;5036922;28;20028;-76
2023/03/26 11:31:26;;;;;;;0.10;0.10;;;10.20;99.90;;;;;;5021409;28;20117;-76
2023/03/26 11:33:57;;;;;;;0.20;0.20;;;10.30;99.90;;;;;;5036293;28;20543;-76
2023/03/26 11:36:29;;;;;;;0.13;0.13;;;10.00;99.90;;;;;;5035221;28;20497;-74
2023/03/26 11:38:58;;;;;;;0.20;0.20;;;9.80;99.90;;;;;;5036655;28;20056;-74
2023/03/26 11:41:27;;;;;;;0.20;0.20;;;9.60;99.90;;;;;;5034777;28;20037;-74
2023/03/26 11:44:20;;;;;;;0.20;0.20;;;9.80;99.90;;;;;;5034968;28;20363;-75
2023/03/26 11:46:48;;;;;;;0.20;0.20;;;10.20;99.90;;;;;;5036269;28;20081;-75
2023/03/26 11:49:18;;;;;;;0.20;0.20;;;10.40;99.90;;;;;;5035485;28;20021;-74
2023/03/26 11:51:46;;;;;;;0.30;0.30;;;10.60;99.90;;;;;;5035960;28;20048;-75
2023/03/26 11:54:12;;;;;;;0.10;0.10;;;10.50;99.90;;;;;;5035810;28;20040;-75
2023/03/26 11:56:49;;;;;;;0.10;0.10;;;10.40;99.90;;;;;;5035888;28;20029;-75
2023/03/26 11:59:23;;;;;;;0.20;0.20;;;10.60;99.90;;;;;;5034401;28;20026;-75
2023/03/26 12:01:56;;;;;;;0.10;0.10;;;11.00;99.90;;;;;;5033632;28;20047;-74
2023/03/26 12:04:40;;;;;;;0.20;0.20;;;10.60;99.90;;;;;;5041736;23;20069;-75
2023/03/26 12:07:17;;;;;;;0.10;0.10;;;10.80;99.90;;;;;;5034425;28;20026;-75
2023/03/26 12:09:55;;;;;;;0.20;0.20;;;11.30;99.90;;;;;;5034602;28;20024;-75
2023/03/26 12:12:25;;;;;;;0.20;0.20;;;11.40;99.90;;;;;;5035722;28;20104;-75
2023/03/26 12:14:52;;;;;;;0.10;0.10;;;11.60;99.90;;;;;;5034225;28;20022;-75
2023/03/26 12:17:29;;;;;;;0.10;0.10;;;11.40;99.90;;;;;;5034002;28;20029;-75
2023/03/26 12:19:55;;;;;;;0.10;0.10;;;11.40;99.90;;;;;;5035633;28;20139;-75
2023/03/26 12:22:31;;;;;;;0.15;0.15;;;11.50;99.90;;;;;;5035543;28;20064;-75
2023/03/26 12:25:01;;;;;;;0.20;0.20;;;11.50;99.90;;;;;;5034923;28;20025;-75
2023/03/26 12:27:29;;;;;;;0.20;0.20;;;11.80;99.90;;;;;;5035598;28;20029;-76
2023/03/26 12:30:08;;;;;;;0.20;0.20;;;12.20;99.90;;;;;;5035303;28;20395;-75
2023/03/26 12:35:06;;;;;;;0.20;0.20;;;12.20;99.90;;;;;;5040797;23;20080;-75
2023/03/26 12:37:39;;;;;;;0.20;0.20;;;12.40;99.90;;;;;;5016401;28;20072;-75
2023/03/26 12:40:34;;;;;;;0.20;0.20;;;12.30;99.90;;;;;;5017481;28;20025;-77
2023/03/26 12:43:02;;;;;;;0.20;0.20;;;12.80;99.90;;;;;;5027699;28;20496;-77
2023/03/26 12:45:40;;;;;;;0.10;0.10;;;12.30;99.90;;;;;;5035202;28;20017;-76
2023/03/26 12:48:08;;;;;;;0.10;0.10;;;12.80;99.90;;;;;;5034908;28;20071;-76
2023/03/26 12:51:05;;;;;;;0.10;0.10;;;12.90;99.90;;;;;;5034430;28;20029;-76
2023/03/26 12:54:05;;;;;;;0.20;0.20;;;12.90;99.90;;;;;;5041429;23;20111;-76
2023/03/26 12:56:58;;;;;;;0.17;0.17;;;13.30;99.90;;;;;;5035131;28;20022;-76
2023/03/26 13:00:07;;;;;;;0.20;0.20;;;12.80;99.90;;;;;;5033607;28;20111;-76
2023/03/26 13:02:47;;;;;;;0.20;0.20;;;13.00;99.90;;;;;;5034207;28;20442;-76
2023/03/26 13:05:44;;;;;;;0.17;0.17;;;13.20;99.90;;;;;;5015226;28;20447;-76
2023/03/26 13:08:12;;;;;;;0.20;0.20;;;13.20;99.90;;;;;;5015325;28;20033;-76
2023/03/26 13:11:16;;;;;;;0.10;0.10;;;12.60;99.90;;;;;;5014868;28;20022;-76
2023/03/26 13:14:03;;;;;;;0.13;0.13;;;12.70;99.90;;;;;;5014624;28;20069;-76
2023/03/26 13:16:29;;;;;;;0.20;0.20;;;12.40;99.90;;;;;;5014964;28;20034;-75
2023/03/26 13:19:20;;;;;;;0.20;0.20;;;12.50;99.90;;;;;;5015042;28;20017;-76
2023/03/26 13:21:57;;;;;;;0.10;0.10;;;12.30;99.90;;;;;;5015078;28;20022;-76
2023/03/26 13:25:03;;;;;;;0.20;0.20;;;12.90;99.90;;;;;;5014200;28;20045;-76
2023/03/26 13:27:50;;;;;;;0.20;0.20;;;13.00;99.90;;;;;;5013378;28;20060;-75
2023/03/26 13:30:45;;;;;;;0.13;0.13;;;13.70;99.90;;;;;;5014746;28;20029;-76
2023/03/26 13:33:41;;;;;;;0.20;0.20;;;13.60;99.90;;;;;;4989047;28;20038;-76
2023/03/26 13:36:37;;;;;;;0.20;0.20;;;13.60;99.90;;;;;;5013403;28;20479;-76
2023/03/26 13:39:30;;;;;;;0.20;0.20;;;13.40;99.90;;;;;;5013235;28;20033;-76